Maersk_kyrenia — VRGM8 — position and weather

sailwx.info

Track history (hours):
 
Tides and Currents Weather Stations Pressure Air Temp Water Temp Dewpoint Dewpoint Depression Visibility Wind Speed Wind Dir Waves Ship Positions

Maersk_kyrenia

Last reported at 2017-Aug-02 10:40 UTC. Time now 2017-Aug-17 08:03 UTC.
Position N 13°21' E 042°49'.
Warning: this ship's position is 14 days out of date.

Length 300 m; draft 13.5 m.

Type: Ship (hazmat cat A). MMSI: 477733600.

Date/timePositionNaut miles runAvg speedWind from/ knotsBaromVisibWave heightAir tempDewpointWater temp
2017-Aug-02 10:40N 13°21' E 042°49'213.7
2017-Aug-02 10:30N 13°22' E 042°47'713.6
2017-Aug-02 10:00N 13°26' E 042°41'  
2017-Jul-28 11:01N 31°24' E 032°20'0 0.1
2017-Jul-28 10:58N 31°24' E 032°20'12 0.9
2017-Jul-27 21:37N 31°12' E 032°21'0 0.1
2017-Jul-27 21:19N 31°12' E 032°21'0 0.0
2017-Jul-27 20:58N 31°12' E 032°21'0 0.0
2017-Jul-27 19:37N 31°12' E 032°21'0 0.0
2017-Jul-27 19:19N 31°12' E 032°21'0 0.0
2017-Jul-27 18:58N 31°12' E 032°21'0 0.1
2017-Jul-27 16:14N 31°13' E 032°21'1 4.5
2017-Jul-27 16:00N 31°14' E 032°21'612.6
2017-Jul-27 15:29N 31°20' E 032°23'611.4
2017-Jul-27 15:00N 31°25' E 032°27'6 6.1
2017-Jul-27 13:59N 31°28' E 032°21'1613.8
2017-Jul-27 12:49N 31°38' E 032°06'813.8
2017-Jul-27 12:12N 31°44' E 031°59'19 5.7
2017-Jul-27 08:49N 31°28' E 031°45'0 0.0
2017-Jul-27 08:28N 31°28' E 031°45'0 0.0
2017-Jul-27 07:16N 31°28' E 031°45'0 0.0
2017-Jul-27 05:25N 31°28' E 031°45'0 0.0
2017-Jul-27 04:07N 31°28' E 031°45'0 0.0
2017-Jul-27 03:46N 31°28' E 031°45'0 0.0
2017-Jul-27 03:30N 31°28' E 031°45'0 0.1
2017-Jul-27 03:00N 31°28' E 031°46'2 3.5
2017-Jul-27 02:30N 31°29' E 031°46'3 6.8
2017-Jul-27 02:00N 31°33' E 031°46'1410.5
2017-Jul-27 00:41N 31°44' E 031°56'1117.2
2017-Jul-27 00:03N 31°53' E 032°04'117.8
2017-Jul-27 00:01N 31°53' E 032°04'2017.9
2017-Jul-26 22:54N 32°11' E 032°15'818.5
2017-Jul-26 22:27N 32°18' E 032°21'818.1
2017-Jul-26 22:00N 32°25' E 032°26'918.4
2017-Jul-26 21:30N 32°32' E 032°32'1018.5
2017-Jul-26 20:59N 32°41' E 032°38'918.4
2017-Jul-26 20:30N 32°48' E 032°44'1318.5
2017-Jul-26 19:47N 32°59' E 032°52'518.5
2017-Jul-26 19:30N 33°03' E 032°56'918.7
2017-Jul-26 19:00N 33°11' E 033°02'918.7
2017-Jul-26 18:30N 33°19' E 033°08'918.6
2017-Jul-26 18:00N 33°26' E 033°15'918.5
2017-Jul-26 17:31N 33°34' E 033°21'918.5
2017-Jul-26 17:00N 33°42' E 033°27'918.4
2017-Jul-26 16:30N 33°49' E 033°34'1018.2
2017-Jul-26 15:58N 33°57' E 033°40'818.1
2017-Jul-26 15:30N 34°04' E 033°45'1118.1
2017-Jul-26 14:54N 34°13' E 033°53'1618.1
2017-Jul-26 14:01N 34°27' E 034°04'918.6
2017-Jul-26 13:30N 34°34' E 034°10'918.6
2017-Jul-26 13:00N 34°42' E 034°16'918.6
2017-Jul-26 12:31N 34°50' E 034°23'918.8
2017-Jul-26 12:01N 34°58' E 034°29'1019.4
2017-Jul-26 11:31N 35°06' E 034°35'1019.4
2017-Jul-26 11:01N 35°14' E 034°41'1019.3
2017-Jul-26 10:29N 35°23' E 034°48'919.0
2017-Jul-26 10:00N 35°30' E 034°54'72 3.9
2017-Jul-25 15:22N 36°28' E 035°49'617.3
2017-Jul-25 15:00N 36°23' E 035°43'47412.9
2017-Jul-24 02:16N 37°22' E 025°55'313.4
2017-Jul-24 02:01N 37°25' E 025°53'713.1
2017-Jul-24 01:30N 37°31' E 025°49'713.0
2017-Jul-24 00:56N 37°38' E 025°46'613.6
2017-Jul-24 00:30N 37°43' E 025°43'713.7
2017-Jul-24 00:00N 37°50' E 025°40'  
Track history (hours):
 
Tides and Currents Weather Stations Pressure Air Temp Water Temp Dewpoint Dewpoint Depression Visibility Wind Speed Wind Dir Waves Ship Positions

Maersk_kyrenia

Last reported at 2017-Aug-02 10:40 UTC. Time now 2017-Aug-17 08:03 UTC.
Position N 13°21' E 042°49'.
Warning: this ship's position is 14 days out of date.

Length 300 m; draft 13.5 m.

Type: Ship (hazmat cat A). MMSI: 477733600.

Date/timePositionNaut miles runAvg speedWind from/ knotsBaromVisibWave heightAir tempDewpointWater temp
2017-Aug-02 10:40N 13°21' E 042°49'213.7
2017-Aug-02 10:30N 13°22' E 042°47'713.6
2017-Aug-02 10:00N 13°26' E 042°41'  
2017-Jul-28 11:01N 31°24' E 032°20'0 0.1
2017-Jul-28 10:58N 31°24' E 032°20'12 0.9
2017-Jul-27 21:37N 31°12' E 032°21'0 0.1
2017-Jul-27 21:19N 31°12' E 032°21'0 0.0
2017-Jul-27 20:58N 31°12' E 032°21'0 0.0
2017-Jul-27 19:37N 31°12' E 032°21'0 0.0
2017-Jul-27 19:19N 31°12' E 032°21'0 0.0
2017-Jul-27 18:58N 31°12' E 032°21'0 0.1
2017-Jul-27 16:14N 31°13' E 032°21'1 4.5
2017-Jul-27 16:00N 31°14' E 032°21'612.6
2017-Jul-27 15:29N 31°20' E 032°23'611.4
2017-Jul-27 15:00N 31°25' E 032°27'6 6.1
2017-Jul-27 13:59N 31°28' E 032°21'1613.8
2017-Jul-27 12:49N 31°38' E 032°06'813.8
2017-Jul-27 12:12N 31°44' E 031°59'19 5.7
2017-Jul-27 08:49N 31°28' E 031°45'0 0.0
2017-Jul-27 08:28N 31°28' E 031°45'0 0.0
2017-Jul-27 07:16N 31°28' E 031°45'0 0.0
2017-Jul-27 05:25N 31°28' E 031°45'0 0.0
2017-Jul-27 04:07N 31°28' E 031°45'0 0.0
2017-Jul-27 03:46N 31°28' E 031°45'0 0.0
2017-Jul-27 03:30N 31°28' E 031°45'0 0.1
2017-Jul-27 03:00N 31°28' E 031°46'2 3.5
2017-Jul-27 02:30N 31°29' E 031°46'3 6.8
2017-Jul-27 02:00N 31°33' E 031°46'1410.5
2017-Jul-27 00:41N 31°44' E 031°56'1117.2
2017-Jul-27 00:03N 31°53' E 032°04'117.8
2017-Jul-27 00:01N 31°53' E 032°04'2017.9
2017-Jul-26 22:54N 32°11' E 032°15'818.5
2017-Jul-26 22:27N 32°18' E 032°21'818.1
2017-Jul-26 22:00N 32°25' E 032°26'918.4
2017-Jul-26 21:30N 32°32' E 032°32'1018.5
2017-Jul-26 20:59N 32°41' E 032°38'918.4
2017-Jul-26 20:30N 32°48' E 032°44'1318.5
2017-Jul-26 19:47N 32°59' E 032°52'518.5
2017-Jul-26 19:30N 33°03' E 032°56'918.7
2017-Jul-26 19:00N 33°11' E 033°02'918.7
2017-Jul-26 18:30N 33°19' E 033°08'918.6
2017-Jul-26 18:00N 33°26' E 033°15'918.5
2017-Jul-26 17:31N 33°34' E 033°21'918.5
2017-Jul-26 17:00N 33°42' E 033°27'918.4
2017-Jul-26 16:30N 33°49' E 033°34'1018.2
2017-Jul-26 15:58N 33°57' E 033°40'818.1
2017-Jul-26 15:30N 34°04' E 033°45'1118.1
2017-Jul-26 14:54N 34°13' E 033°53'1618.1
2017-Jul-26 14:01N 34°27' E 034°04'918.6
2017-Jul-26 13:30N 34°34' E 034°10'918.6
2017-Jul-26 13:00N 34°42' E 034°16'918.6
2017-Jul-26 12:31N 34°50' E 034°23'918.8
2017-Jul-26 12:01N 34°58' E 034°29'1019.4
2017-Jul-26 11:31N 35°06' E 034°35'1019.4
2017-Jul-26 11:01N 35°14' E 034°41'1019.3
2017-Jul-26 10:29N 35°23' E 034°48'919.0
2017-Jul-26 10:00N 35°30' E 034°54'72 3.9
2017-Jul-25 15:22N 36°28' E 035°49'617.3
2017-Jul-25 15:00N 36°23' E 035°43'47412.9
2017-Jul-24 02:16N 37°22' E 025°55'313.4
2017-Jul-24 02:01N 37°25' E 025°53'713.1
2017-Jul-24 01:30N 37°31' E 025°49'713.0
2017-Jul-24 00:56N 37°38' E 025°46'613.6
2017-Jul-24 00:30N 37°43' E 025°43'713.7
2017-Jul-24 00:00N 37°50' E 025°40'  

Dump ship's entire track history